createdAt,value
2017-03-01T00:00:27.254Z,946.87
2017-03-01T00:01:36.414Z,946.84
2017-03-01T00:02:46.009Z,946.87
2017-03-01T00:03:55.563Z,946.89
2017-03-01T00:05:05.549Z,946.84
2017-03-01T00:06:14.996Z,946.86
2017-03-01T00:07:25.001Z,946.84
2017-03-01T00:08:34.621Z,946.88
2017-03-01T00:09:44.598Z,946.82
2017-03-01T00:10:54.592Z,946.84
2017-03-01T00:12:03.809Z,946.87
2017-03-01T00:13:13.428Z,946.89
2017-03-01T00:14:22.974Z,946.88
2017-03-01T00:15:33.658Z,946.87
2017-03-01T00:16:44.040Z,946.88
2017-03-01T00:17:54.021Z,946.91
2017-03-01T00:19:04.408Z,946.89
2017-03-01T00:20:14.789Z,946.92
2017-03-01T00:21:23.987Z,946.92
2017-03-01T00:22:33.579Z,946.94
2017-03-01T00:23:44.324Z,946.93
2017-03-01T00:24:53.522Z,946.93
2017-03-01T00:26:03.498Z,946.97
2017-03-01T00:27:13.496Z,946.93
2017-03-01T00:28:22.321Z,946.93
2017-03-01T00:29:31.932Z,946.93
2017-03-01T00:30:41.522Z,946.94
2017-03-01T00:31:51.890Z,946.94
2017-03-01T00:33:01.466Z,946.86
2017-03-01T00:34:11.449Z,946.9
2017-03-01T00:35:21.037Z,946.89
2017-03-01T00:36:30.247Z,946.88
2017-03-01T00:37:40.633Z,946.9
2017-03-01T00:38:51.411Z,946.89
2017-03-01T00:40:00.624Z,946.92
2017-03-01T00:41:10.214Z,946.87
2017-03-01T00:42:19.873Z,946.97
2017-03-01T00:43:29.488Z,946.93
2017-03-01T00:44:39.472Z,946.94
2017-03-01T00:45:49.081Z,947.03
2017-03-01T00:46:58.674Z,947.03
2017-03-01T00:48:08.649Z,947.06
2017-03-01T00:49:18.266Z,947.05
2017-03-01T00:50:27.788Z,947.07
2017-03-01T00:51:37.791Z,947.07
2017-03-01T00:52:46.938Z,947.12
2017-03-01T00:53:56.955Z,947.09
2017-03-01T00:55:06.926Z,947.12
2017-03-01T00:56:17.310Z,947.13
2017-03-01T00:57:26.508Z,947.09
2017-03-01T00:58:35.706Z,947.1
2017-03-01T00:59:44.895Z,947.19
2017-03-01T01:00:54.126Z,947.16
2017-03-01T01:02:04.125Z,947.16
2017-03-01T01:03:13.706Z,947.16
2017-03-01T01:04:23.667Z,947.17
2017-03-01T01:05:33.680Z,947.16
2017-03-01T01:06:43.296Z,947.2
2017-03-01T01:07:53.635Z,947.19
2017-03-01T01:09:02.838Z,947.23
2017-03-01T01:10:12.030Z,947.22
2017-03-01T01:11:22.024Z,947.26
2017-03-01T01:12:31.596Z,947.22
2017-03-01T01:13:40.809Z,947.28
2017-03-01T01:14:50.775Z,947.28
2017-03-01T01:16:00.316Z,947.28
2017-03-01T01:17:09.514Z,947.28
2017-03-01T01:18:19.049Z,947.29
2017-03-01T01:19:28.253Z,947.33
2017-03-01T01:20:37.854Z,947.34
2017-03-01T01:21:47.074Z,947.36
2017-03-01T01:22:56.659Z,947.39
2017-03-01T01:24:05.855Z,947.36
2017-03-01T01:25:15.050Z,947.36
2017-03-01T01:26:24.188Z,947.38
2017-03-01T01:27:33.402Z,947.4
2017-03-01T01:28:43.395Z,947.41
2017-03-01T01:29:53.401Z,947.45
2017-03-01T01:31:03.024Z,947.38
2017-03-01T01:32:12.610Z,947.43
2017-03-01T01:33:22.595Z,947.42
2017-03-01T01:34:32.623Z,947.42
2017-03-01T01:35:42.224Z,947.41
2017-03-01T01:36:51.432Z,947.4
2017-03-01T01:38:01.423Z,947.44
2017-03-01T01:39:10.666Z,947.39
2017-03-01T01:40:20.286Z,947.44
2017-03-01T01:41:30.655Z,947.42
2017-03-01T01:42:39.459Z,947.46
2017-03-01T01:43:48.261Z,947.42
2017-03-01T01:44:58.547Z,947.44
2017-03-01T01:46:08.095Z,947.45
2017-03-01T01:47:17.295Z,947.42
2017-03-01T01:48:27.289Z,947.45
2017-03-01T01:49:36.472Z,947.42
2017-03-01T01:50:46.449Z,947.47
2017-03-01T01:51:56.002Z,947.47
2017-03-01T01:53:05.598Z,947.47
2017-03-01T01:54:15.586Z,947.45
2017-03-01T01:55:25.542Z,947.48
2017-03-01T01:56:35.462Z,947.45
2017-03-01T01:57:45.005Z,947.45
2017-03-01T01:58:54.642Z,947.49
2017-03-01T02:00:04.633Z,947.48
2017-03-01T02:01:14.610Z,947.5
2017-03-01T02:02:24.919Z,947.46
2017-03-01T02:03:34.078Z,947.53
2017-03-01T02:04:43.648Z,947.51
2017-03-01T02:05:53.568Z,947.51
2017-03-01T02:07:03.164Z,947.55
2017-03-01T02:08:12.778Z,947.53
2017-03-01T02:09:22.763Z,947.56
2017-03-01T02:10:32.312Z,947.52
2017-03-01T02:11:41.903Z,947.56
2017-03-01T02:12:52.661Z,947.59
2017-03-01T02:14:02.255Z,947.57
2017-03-01T02:15:12.628Z,947.58
2017-03-01T02:16:22.595Z,947.57
2017-03-01T02:17:32.512Z,947.58
2017-03-01T02:18:42.106Z,947.6
2017-03-01T02:19:51.713Z,947.6
2017-03-01T02:21:00.922Z,947.62
2017-03-01T02:22:10.910Z,947.62
2017-03-01T02:23:20.106Z,947.58
2017-03-01T02:24:30.075Z,947.63
2017-03-01T02:25:39.682Z,947.63
2017-03-01T02:26:50.069Z,947.63
2017-03-01T02:28:00.039Z,947.69
2017-03-01T02:29:09.608Z,947.7
2017-03-01T02:30:19.133Z,947.66
2017-03-01T02:31:28.320Z,947.6
2017-03-01T02:32:38.632Z,947.64
2017-03-01T02:33:47.838Z,947.63
2017-03-01T02:34:57.437Z,947.6
2017-03-01T02:36:07.030Z,947.61
2017-03-01T02:37:16.610Z,947.59
2017-03-01T02:38:25.808Z,947.54
2017-03-01T02:39:35.414Z,947.58
2017-03-01T02:40:45.026Z,947.61
2017-03-01T02:41:55.013Z,947.57
2017-03-01T02:43:04.610Z,947.61
2017-03-01T02:44:14.600Z,947.65
2017-03-01T02:45:24.197Z,947.66
2017-03-01T02:46:33.380Z,947.62
2017-03-01T02:47:42.922Z,947.65
2017-03-01T02:48:52.089Z,947.69
2017-03-01T02:50:01.272Z,947.73
2017-03-01T02:51:10.858Z,947.67
2017-03-01T02:52:20.855Z,947.65
2017-03-01T02:53:30.051Z,947.67
2017-03-01T02:54:40.042Z,947.64
2017-03-01T02:55:49.635Z,947.65
2017-03-01T02:57:00.022Z,947.67
2017-03-01T02:58:09.530Z,947.69
2017-03-01T02:59:19.512Z,947.64
2017-03-01T03:00:29.425Z,947.69
2017-03-01T03:01:39.024Z,947.67
2017-03-01T03:02:49.383Z,947.65
2017-03-01T03:03:59.305Z,947.62
2017-03-01T03:05:09.664Z,947.63
2017-03-01T03:06:19.643Z,947.59
2017-03-01T03:07:29.650Z,947.63
2017-03-01T03:08:39.643Z,947.54
2017-03-01T03:09:49.626Z,947.56
2017-03-01T03:10:58.837Z,947.6
2017-03-01T03:12:08.829Z,947.54
2017-03-01T03:13:18.820Z,947.55
2017-03-01T03:14:28.806Z,947.53
2017-03-01T03:15:37.976Z,947.56
2017-03-01T03:16:47.167Z,947.56
2017-03-01T03:17:56.761Z,947.52
2017-03-01T03:19:05.970Z,947.5
2017-03-01T03:20:15.565Z,947.54
2017-03-01T03:21:25.146Z,947.53
2017-03-01T03:22:34.345Z,947.52
2017-03-01T03:23:43.889Z,947.53
2017-03-01T03:24:53.471Z,947.53
2017-03-01T03:26:03.067Z,947.52
2017-03-01T03:27:12.682Z,947.55
2017-03-01T03:28:22.635Z,947.54
2017-03-01T03:29:32.625Z,947.55
2017-03-01T03:30:41.843Z,947.52
2017-03-01T03:31:51.433Z,947.51
2017-03-01T03:33:00.624Z,947.52
2017-03-01T03:34:10.642Z,947.52
2017-03-01T03:35:19.881Z,947.57
2017-03-01T03:36:29.499Z,947.55
2017-03-01T03:37:38.704Z,947.53
2017-03-01T03:38:47.511Z,947.54
2017-03-01T03:39:57.100Z,947.53
2017-03-01T03:41:07.083Z,947.48
2017-03-01T03:42:16.301Z,947.46
2017-03-01T03:43:25.915Z,947.49
2017-03-01T03:46:44.257Z,947.51
2017-03-01T03:47:53.769Z,947.54
2017-03-01T03:49:02.940Z,947.52
2017-03-01T03:50:12.464Z,947.52
2017-03-01T03:51:21.692Z,947.47
2017-03-01T03:52:30.915Z,947.53
2017-03-01T03:53:40.111Z,947.52
2017-03-01T03:54:49.678Z,947.48
2017-03-01T03:55:59.248Z,947.45
2017-03-01T03:57:08.814Z,947.46
2017-03-01T03:58:18.019Z,947.52
2017-03-01T03:59:27.998Z,947.57
2017-03-01T04:00:37.580Z,947.61
2017-03-01T04:01:47.164Z,947.58
2017-03-01T04:02:56.744Z,947.59
2017-03-01T04:04:06.287Z,947.55
2017-03-01T04:05:15.019Z,947.49
2017-03-01T04:06:23.819Z,947.53
2017-03-01T04:07:33.399Z,947.52
2017-03-01T04:08:43.344Z,947.54
2017-03-01T04:09:52.145Z,947.58
2017-03-01T04:11:02.470Z,947.5
2017-03-01T04:12:11.986Z,947.48
2017-03-01T04:13:22.535Z,947.54
2017-03-01T04:14:32.488Z,947.56
2017-03-01T04:15:42.032Z,947.63
2017-03-01T04:16:51.991Z,947.7
2017-03-01T04:18:01.567Z,947.71
2017-03-01T04:19:11.914Z,947.65
2017-03-01T04:20:21.499Z,947.64
2017-03-01T04:21:30.660Z,947.63
2017-03-01T04:22:40.580Z,947.6
2017-03-01T04:23:50.586Z,947.62
2017-03-01T04:25:00.541Z,947.6
2017-03-01T04:26:10.136Z,947.6
2017-03-01T04:27:19.311Z,947.58
2017-03-01T04:28:28.480Z,947.59
2017-03-01T04:29:38.072Z,947.62
2017-03-01T04:30:47.660Z,947.62
2017-03-01T04:31:57.631Z,947.67
2017-03-01T04:33:06.431Z,947.64
2017-03-01T04:34:15.777Z,947.63
2017-03-01T04:35:24.958Z,947.72
2017-03-01T04:36:34.893Z,947.68
2017-03-01T04:37:44.474Z,947.64
2017-03-01T04:38:54.034Z,947.69
2017-03-01T04:40:03.222Z,947.7
2017-03-01T04:41:13.184Z,947.63
2017-03-01T04:42:23.142Z,947.71
2017-03-01T04:43:32.323Z,947.76
2017-03-01T04:44:42.216Z,947.75
2017-03-01T04:45:51.775Z,947.75
2017-03-01T04:47:00.952Z,947.71
2017-03-01T04:48:11.094Z,947.77
2017-03-01T04:49:20.260Z,947.7
2017-03-01T04:50:29.405Z,947.74
2017-03-01T04:51:38.562Z,947.83
2017-03-01T04:52:48.460Z,947.81
2017-03-01T04:53:58.027Z,947.8
2017-03-01T04:55:07.594Z,947.81
2017-03-01T04:56:17.558Z,947.8
2017-03-01T04:57:27.513Z,947.85
2017-03-01T04:58:36.698Z,947.71
2017-03-01T04:59:46.648Z,947.89
2017-03-01T05:00:56.998Z,947.81
2017-03-01T05:02:06.962Z,947.89
2017-03-01T05:03:16.946Z,947.87
2017-03-01T05:04:26.135Z,947.88
2017-03-01T05:05:36.102Z,947.93
2017-03-01T05:06:45.724Z,947.91
2017-03-01T05:07:54.902Z,947.93
2017-03-01T05:09:05.174Z,948.02
2017-03-01T05:10:15.130Z,948.02
2017-03-01T05:11:24.321Z,948.04
2017-03-01T05:12:33.915Z,948.02
2017-03-01T05:13:43.503Z,948.01
2017-03-01T05:14:52.282Z,948.03
2017-03-01T05:16:02.629Z,948.02
2017-03-01T05:17:12.211Z,948.02
2017-03-01T05:18:21.409Z,948.01
2017-03-01T05:19:30.915Z,947.99
2017-03-01T05:20:40.899Z,948.06
2017-03-01T05:21:50.873Z,948.08
2017-03-01T05:23:00.472Z,948.11
2017-03-01T05:24:10.417Z,948.05
2017-03-01T05:25:19.565Z,948
2017-03-01T05:26:29.505Z,948.05
2017-03-01T05:27:39.391Z,948.07
2017-03-01T05:28:48.894Z,948.08
2017-03-01T05:29:58.850Z,948.02
2017-03-01T05:31:08.055Z,947.99
2017-03-01T05:32:17.671Z,948.08
2017-03-01T05:33:26.863Z,948.18
2017-03-01T05:34:35.981Z,948.18
2017-03-01T05:35:45.945Z,948.19
2017-03-01T05:36:55.915Z,948.2
2017-03-01T05:38:06.654Z,948.21
2017-03-01T05:39:16.606Z,948.29
2017-03-01T05:40:26.215Z,948.28
2017-03-01T05:41:35.802Z,948.21
2017-03-01T05:42:45.401Z,948.23
2017-03-01T05:43:54.950Z,948.29
2017-03-01T05:45:04.049Z,948.29
2017-03-01T05:46:13.576Z,948.24
2017-03-01T05:47:23.552Z,948.25
2017-03-01T05:48:34.285Z,948.32
2017-03-01T05:49:43.850Z,948.29
2017-03-01T05:50:53.431Z,948.28
2017-03-01T05:52:03.002Z,948.3
2017-03-01T05:53:13.716Z,948.39
2017-03-01T05:54:22.500Z,948.36
2017-03-01T05:55:31.705Z,948.41
2017-03-01T05:56:40.882Z,948.41
2017-03-01T05:57:50.774Z,948.45
2017-03-01T05:59:00.753Z,948.45
2017-03-01T06:00:11.340Z,948.39
2017-03-01T06:01:21.100Z,948.43
2017-03-01T06:02:30.285Z,948.45
2017-03-01T06:03:40.246Z,948.43
2017-03-01T06:04:49.847Z,948.47
2017-03-01T06:06:00.219Z,948.46
2017-03-01T06:07:09.784Z,948.47
2017-03-01T06:08:18.970Z,948.55
2017-03-01T06:09:28.535Z,948.53
2017-03-01T06:10:37.716Z,948.61
2017-03-01T06:11:47.299Z,948.6
2017-03-01T06:12:57.233Z,948.59
2017-03-01T06:14:06.363Z,948.55
2017-03-01T06:15:15.941Z,948.56
2017-03-01T06:16:25.521Z,948.52
2017-03-01T06:17:35.109Z,948.57
2017-03-01T06:18:43.919Z,948.56
2017-03-01T06:19:54.295Z,948.62
2017-03-01T06:21:04.661Z,948.61
2017-03-01T06:22:14.592Z,948.57
2017-03-01T06:23:24.510Z,948.55
2017-03-01T06:24:34.396Z,948.6
2017-03-01T06:25:44.954Z,948.71
2017-03-01T06:26:54.923Z,948.65
2017-03-01T06:28:04.080Z,948.71
2017-03-01T06:29:13.635Z,948.74
2017-03-01T06:30:23.623Z,948.82
2017-03-01T06:31:32.814Z,948.8
2017-03-01T06:32:42.004Z,948.89
2017-03-01T06:33:51.197Z,948.83
2017-03-01T06:35:00.792Z,948.83
2017-03-01T06:36:11.135Z,948.84
2017-03-01T06:37:20.328Z,948.9
2017-03-01T06:38:30.677Z,948.92
2017-03-01T06:39:39.880Z,948.98
2017-03-01T06:40:49.457Z,948.94
2017-03-01T06:41:59.036Z,949.01
2017-03-01T06:43:08.931Z,948.94
2017-03-01T06:44:18.879Z,948.96
2017-03-01T06:45:28.459Z,948.95
2017-03-01T06:46:37.258Z,948.97
2017-03-01T06:47:46.444Z,949.03
2017-03-01T06:48:55.646Z,948.96
2017-03-01T06:50:05.610Z,949.02
2017-03-01T06:51:15.934Z,948.99
2017-03-01T06:52:25.060Z,948.92
2017-03-01T06:53:34.197Z,948.97
2017-03-01T06:54:43.398Z,949.03
2017-03-01T06:55:52.967Z,948.94
2017-03-01T06:57:02.945Z,949.12
2017-03-01T06:58:12.461Z,949
2017-03-01T06:59:21.972Z,949.09
2017-03-01T07:00:31.935Z,949.1
2017-03-01T07:01:41.471Z,949.02
2017-03-01T07:02:51.035Z,949.15
2017-03-01T07:04:00.607Z,949
2017-03-01T07:05:10.569Z,949.11
2017-03-01T07:06:19.750Z,949.07
2017-03-01T07:07:28.479Z,949.04
2017-03-01T07:08:38.009Z,949.05
2017-03-01T07:09:47.956Z,949.05
2017-03-01T07:10:57.477Z,948.93
2017-03-01T07:12:06.977Z,949.01
2017-03-01T07:13:15.720Z,949.1
2017-03-01T07:14:25.493Z,949.07
2017-03-01T07:15:35.479Z,949.12
2017-03-01T07:16:44.307Z,949.14
2017-03-01T07:17:53.497Z,949.21
2017-03-01T07:19:03.469Z,949.4
2017-03-01T07:20:13.067Z,949.45
2017-03-01T07:21:22.693Z,949.55
2017-03-01T07:22:31.879Z,949.64
2017-03-01T07:23:41.081Z,949.85
2017-03-01T07:24:50.518Z,949.82
2017-03-01T07:26:00.482Z,949.94
2017-03-01T07:27:09.638Z,949.79
2017-03-01T07:28:19.162Z,949.86
2017-03-01T07:29:29.535Z,949.83
2017-03-01T07:30:39.119Z,949.9
2017-03-01T07:31:49.098Z,949.89
2017-03-01T07:32:59.460Z,949.92
2017-03-01T07:34:09.818Z,950.01
2017-03-01T07:35:19.794Z,949.96
2017-03-01T07:36:29.382Z,950.01
2017-03-01T07:37:39.340Z,950.09
2017-03-01T07:38:48.944Z,950.18
2017-03-01T07:39:58.916Z,950.23
2017-03-01T07:41:09.276Z,950.18
2017-03-01T07:42:19.239Z,950.09
2017-03-01T07:43:29.210Z,949.99
2017-03-01T07:44:38.009Z,950.07
2017-03-01T07:45:47.586Z,950.13
2017-03-01T07:46:57.172Z,950.18
2017-03-01T07:48:07.534Z,950.12
2017-03-01T07:49:17.872Z,950.17
2017-03-01T07:50:28.536Z,950.26
2017-03-01T07:51:38.039Z,950.19
2017-03-01T07:52:47.606Z,950.27
2017-03-01T07:53:57.599Z,950.22
2017-03-01T07:55:06.804Z,950.26
2017-03-01T07:56:16.749Z,950.34
2017-03-01T07:57:26.255Z,950.35
2017-03-01T07:58:35.840Z,950.36
2017-03-01T07:59:45.817Z,950.36
2017-03-01T08:00:54.986Z,950.41
2017-03-01T08:02:04.123Z,950.37
2017-03-01T08:03:13.328Z,950.45
2017-03-01T08:04:23.677Z,950.39
2017-03-01T08:05:33.242Z,950.44
2017-03-01T08:06:43.249Z,950.45
2017-03-01T08:07:53.582Z,950.49
2017-03-01T08:09:03.772Z,950.4
2017-03-01T08:10:13.444Z,950.55
2017-03-01T08:11:23.007Z,950.54
2017-03-01T08:12:31.750Z,950.55
2017-03-01T08:13:41.695Z,950.55
2017-03-01T08:14:50.850Z,950.55
2017-03-01T08:16:00.393Z,950.71
2017-03-01T08:17:09.983Z,950.62
2017-03-01T08:18:19.419Z,950.82
2017-03-01T08:19:28.986Z,950.74
2017-03-01T08:20:39.377Z,950.8
2017-03-01T08:21:48.557Z,950.87
2017-03-01T08:22:57.740Z,950.93
2017-03-01T08:24:07.334Z,950.89
2017-03-01T08:25:16.913Z,950.93
2017-03-01T08:26:26.098Z,950.89
2017-03-01T08:27:36.436Z,950.95
2017-03-01T08:28:46.373Z,950.94
2017-03-01T08:29:55.859Z,950.96
2017-03-01T08:31:05.016Z,950.99
2017-03-01T08:32:14.608Z,950.99
2017-03-01T08:33:23.731Z,951.06
2017-03-01T08:34:33.686Z,951.05
2017-03-01T08:35:42.867Z,951.03
2017-03-01T08:36:52.012Z,951.07
2017-03-01T08:38:01.579Z,951.05
2017-03-01T08:39:11.926Z,951.07
2017-03-01T08:40:21.528Z,951.07
2017-03-01T08:41:31.478Z,951.04
2017-03-01T08:42:40.651Z,951.07
2017-03-01T08:43:50.607Z,951.13
2017-03-01T08:45:00.575Z,951.18
2017-03-01T08:46:10.539Z,951.11
2017-03-01T08:47:21.296Z,951.16
2017-03-01T08:48:30.482Z,951.2
2017-03-01T08:49:40.454Z,951.19
2017-03-01T08:50:49.661Z,951.21
2017-03-01T08:52:00.379Z,951.24
2017-03-01T08:53:09.886Z,951.24
2017-03-01T08:54:19.847Z,951.27
2017-03-01T08:55:29.375Z,951.27
2017-03-01T08:56:38.580Z,951.33
2017-03-01T08:57:48.161Z,951.3
2017-03-01T08:58:58.133Z,951.28
2017-03-01T09:00:07.333Z,951.3
2017-03-01T09:01:16.911Z,951.29
2017-03-01T09:05:29.726Z,951.44
2017-03-01T09:06:39.694Z,951.45
2017-03-01T09:07:49.310Z,951.48
2017-03-01T09:08:59.307Z,951.55
2017-03-01T09:10:08.449Z,951.54
2017-03-01T09:11:18.458Z,951.56
2017-03-01T09:12:27.667Z,951.58
2017-03-01T09:13:37.283Z,951.54
2017-03-01T09:14:47.281Z,951.68
2017-03-01T09:15:57.264Z,951.69
2017-03-01T09:17:06.525Z,951.7
2017-03-01T09:18:16.924Z,951.73
2017-03-01T09:19:27.306Z,951.7
2017-03-01T09:20:37.293Z,951.76
2017-03-01T09:21:46.514Z,951.79
2017-03-01T09:22:55.671Z,951.78
2017-03-01T09:24:06.007Z,951.76
2017-03-01T09:25:15.617Z,951.81
2017-03-01T09:26:24.814Z,951.85
2017-03-01T09:27:33.961Z,951.87
2017-03-01T09:28:43.487Z,951.85
2017-03-01T09:29:53.089Z,951.87
2017-03-01T09:31:02.288Z,951.88
2017-03-01T09:32:11.515Z,951.87
2017-03-01T09:33:21.962Z,951.88
2017-03-01T09:34:31.698Z,951.86
2017-03-01T09:35:41.654Z,951.86
2017-03-01T09:36:51.237Z,951.86
2017-03-01T09:38:00.828Z,951.94
2017-03-01T09:39:11.208Z,951.94
2017-03-01T09:40:20.803Z,951.96
2017-03-01T09:41:29.570Z,951.87
2017-03-01T09:42:39.165Z,951.97
2017-03-01T09:43:49.548Z,951.87
2017-03-01T09:44:59.542Z,952
2017-03-01T09:46:09.143Z,952.01
2017-03-01T09:47:18.351Z,952.09
2017-03-01T09:48:27.579Z,952.09
2017-03-01T09:49:37.111Z,952.11
2017-03-01T09:50:47.079Z,952.18
2017-03-01T09:51:57.397Z,952.11
2017-03-01T09:53:06.993Z,952.14
2017-03-01T09:54:16.522Z,952.13
2017-03-01T09:55:26.121Z,952.16
2017-03-01T09:56:35.268Z,952.28
2017-03-01T09:57:44.488Z,952.27
2017-03-01T09:58:53.689Z,952.26
2017-03-01T10:00:04.002Z,952.31
2017-03-01T10:01:13.234Z,952.34
2017-03-01T10:02:23.211Z,952.25
2017-03-01T10:03:32.425Z,952.33
2017-03-01T10:04:42.601Z,952.39
2017-03-01T10:05:52.437Z,952.4
2017-03-01T10:07:02.024Z,952.39
2017-03-01T10:08:11.582Z,952.39
2017-03-01T10:09:21.168Z,952.36
2017-03-01T10:10:30.377Z,952.43
2017-03-01T10:11:39.927Z,952.44
2017-03-01T10:12:49.843Z,952.36
2017-03-01T10:13:59.810Z,952.47
2017-03-01T10:15:09.006Z,952.41
2017-03-01T10:16:17.817Z,952.41
2017-03-01T10:17:26.886Z,952.41
2017-03-01T10:18:36.082Z,952.45
2017-03-01T10:19:46.453Z,952.49
2017-03-01T10:20:56.804Z,952.49
2017-03-01T10:22:06.421Z,952.51
2017-03-01T10:23:15.620Z,952.53
2017-03-01T10:24:25.212Z,952.49
2017-03-01T10:25:34.022Z,952.59
2017-03-01T10:26:44.033Z,952.52
2017-03-01T10:27:54.399Z,952.59
2017-03-01T10:29:03.563Z,952.63
2017-03-01T10:30:13.158Z,952.64
2017-03-01T10:31:22.384Z,952.74
2017-03-01T10:32:31.920Z,952.76
2017-03-01T10:33:41.114Z,952.79
2017-03-01T10:34:50.307Z,952.79
2017-03-01T10:35:59.920Z,952.8
2017-03-01T10:37:09.903Z,952.8
2017-03-01T10:38:19.928Z,952.85
2017-03-01T10:39:29.552Z,952.83
2017-03-01T10:40:39.200Z,952.86
2017-03-01T10:41:49.184Z,952.91
2017-03-01T10:42:59.162Z,952.9
2017-03-01T10:44:08.763Z,952.9
2017-03-01T10:45:18.360Z,952.89
2017-03-01T10:46:28.366Z,952.92
2017-03-01T10:47:37.928Z,952.92
2017-03-01T10:48:47.475Z,952.91
2017-03-01T10:49:57.049Z,952.9
2017-03-01T10:51:06.625Z,952.9
2017-03-01T10:52:16.217Z,952.91
2017-03-01T10:53:25.396Z,952.94
2017-03-01T10:54:35.691Z,952.94
2017-03-01T10:55:44.850Z,952.94
2017-03-01T10:56:54.443Z,953.02
2017-03-01T10:58:04.822Z,952.98
2017-03-01T10:59:13.636Z,952.93
2017-03-01T11:00:23.656Z,952.96
2017-03-01T11:01:32.873Z,952.99
2017-03-01T11:02:43.177Z,953.01
2017-03-01T11:03:52.795Z,952.98
2017-03-01T11:05:01.630Z,952.98
2017-03-01T11:06:11.237Z,952.98
2017-03-01T11:07:20.882Z,952.99
2017-03-01T11:08:30.085Z,952.99
2017-03-01T11:09:40.071Z,952.99
2017-03-01T11:10:50.065Z,952.94
2017-03-01T11:11:59.280Z,952.95
2017-03-01T11:13:08.874Z,953
2017-03-01T11:14:18.481Z,952.99
2017-03-01T11:15:28.464Z,953.03
2017-03-01T11:16:38.016Z,953.04
2017-03-01T11:17:47.231Z,953.01
2017-03-01T11:18:57.611Z,953.04
2017-03-01T11:20:06.793Z,953.06
2017-03-01T11:21:15.992Z,953.07
2017-03-01T11:22:26.374Z,953.1
2017-03-01T11:23:35.992Z,953.11
2017-03-01T11:24:45.932Z,953.11
2017-03-01T11:25:55.523Z,953.16
2017-03-01T11:27:05.136Z,953.13
2017-03-01T11:28:15.509Z,953.15
2017-03-01T11:29:25.502Z,953.19
2017-03-01T11:30:35.097Z,953.16
2017-03-01T11:31:44.303Z,953.2
2017-03-01T11:32:53.507Z,953.17
2017-03-01T11:34:03.496Z,953.19
2017-03-01T11:35:12.707Z,953.2
2017-03-01T11:36:22.285Z,953.18
2017-03-01T11:37:32.683Z,953.24
2017-03-01T11:38:41.866Z,953.2
2017-03-01T11:39:51.816Z,953.25
2017-03-01T11:41:01.791Z,953.23
2017-03-01T11:42:10.948Z,953.23
2017-03-01T11:43:20.920Z,953.21
2017-03-01T11:44:30.127Z,953.21
2017-03-01T11:45:40.106Z,953.26
2017-03-01T11:46:50.056Z,953.28
2017-03-01T11:48:00.028Z,953.25
2017-03-01T11:49:10.030Z,953.29
2017-03-01T11:50:19.614Z,953.3
2017-03-01T11:51:30.002Z,953.25
2017-03-01T11:52:39.998Z,953.24
2017-03-01T11:53:49.619Z,953.24
2017-03-01T11:54:58.827Z,953.22
2017-03-01T11:56:08.819Z,953.18
2017-03-01T11:57:17.960Z,953.23
2017-03-01T11:58:27.553Z,953.23
2017-03-01T11:59:36.751Z,953.23
2017-03-01T12:00:46.313Z,953.31
2017-03-01T12:01:55.898Z,953.34
2017-03-01T12:03:05.345Z,953.37
2017-03-01T12:04:15.331Z,953.3
2017-03-01T12:05:24.187Z,953.35
2017-03-01T12:06:33.808Z,953.26
2017-03-01T12:07:43.032Z,953.27
2017-03-01T12:08:51.856Z,953.26
2017-03-01T12:10:01.462Z,953.33
2017-03-01T12:11:10.704Z,953.34
2017-03-01T12:12:19.516Z,953.37
2017-03-01T12:13:29.084Z,953.38
2017-03-01T12:14:38.646Z,953.38
2017-03-01T12:15:48.235Z,953.42
2017-03-01T12:16:57.800Z,953.34
2017-03-01T12:18:06.561Z,953.39
2017-03-01T12:19:16.532Z,953.37
2017-03-01T12:20:25.734Z,953.39
2017-03-01T12:21:36.104Z,953.45
2017-03-01T12:22:45.255Z,953.36
2017-03-01T12:23:54.859Z,953.36
2017-03-01T12:25:04.842Z,953.34
2017-03-01T12:26:14.047Z,953.36
2017-03-01T12:27:23.673Z,953.29
2017-03-01T12:28:33.655Z,953.38
2017-03-01T12:29:42.796Z,953.33
2017-03-01T12:30:52.417Z,953.33
2017-03-01T12:32:01.991Z,953.39
2017-03-01T12:33:11.148Z,953.32
2017-03-01T12:34:21.046Z,953.37
2017-03-01T12:35:30.227Z,953.38
2017-03-01T12:36:39.038Z,953.37
2017-03-01T12:37:48.040Z,953.44
2017-03-01T12:38:57.210Z,953.37
2017-03-01T12:40:07.587Z,953.36
2017-03-01T12:41:17.563Z,953.33
2017-03-01T12:42:27.545Z,953.33
2017-03-01T12:43:37.156Z,953.33
2017-03-01T12:44:47.135Z,953.4
2017-03-01T12:45:56.720Z,953.36
2017-03-01T12:47:06.323Z,953.35
2017-03-01T12:48:15.921Z,953.33
2017-03-01T12:49:25.845Z,953.3
2017-03-01T12:50:34.999Z,953.32
2017-03-01T12:51:44.236Z,953.34
2017-03-01T12:52:54.206Z,953.38
2017-03-01T12:54:03.740Z,953.34
2017-03-01T12:55:13.270Z,953.34
2017-03-01T12:56:22.862Z,953.33
2017-03-01T12:57:32.834Z,953.31
2017-03-01T12:58:42.053Z,953.33
2017-03-01T12:59:52.077Z,953.35
2017-03-01T13:01:02.134Z,953.35
2017-03-01T13:02:11.826Z,953.37
2017-03-01T13:03:20.638Z,953.32
2017-03-01T13:04:30.219Z,953.29
2017-03-01T13:05:39.766Z,953.28
2017-03-01T13:06:48.957Z,953.31
2017-03-01T13:07:58.899Z,953.33
2017-03-01T13:09:08.118Z,953.36
2017-03-01T13:10:17.252Z,953.36
2017-03-01T13:11:26.839Z,953.35
2017-03-01T13:12:36.458Z,953.36
2017-03-01T13:13:45.656Z,953.37
2017-03-01T13:14:55.633Z,953.4
2017-03-01T13:16:05.227Z,953.32
2017-03-01T13:17:14.442Z,953.38
2017-03-01T13:18:24.586Z,953.36
2017-03-01T13:19:34.201Z,953.37
2017-03-01T13:20:43.833Z,953.41
2017-03-01T13:21:53.074Z,953.4
2017-03-01T13:23:03.038Z,953.45
2017-03-01T13:24:13.346Z,953.42
2017-03-01T13:25:22.873Z,953.4
2017-03-01T13:26:32.814Z,953.36
2017-03-01T13:27:41.639Z,953.42
2017-03-01T13:28:50.887Z,953.43
2017-03-01T13:30:00.052Z,953.41
2017-03-01T13:31:08.857Z,953.43
2017-03-01T13:32:18.044Z,953.42
2017-03-01T13:33:27.595Z,953.41
2017-03-01T13:34:37.219Z,953.4
2017-03-01T13:35:46.814Z,953.37
2017-03-01T13:36:56.717Z,953.37
2017-03-01T13:38:06.328Z,953.35
2017-03-01T13:39:15.941Z,953.38
2017-03-01T13:40:25.556Z,953.42
2017-03-01T13:41:34.739Z,953.42
2017-03-01T13:42:44.289Z,953.4
2017-03-01T13:43:53.107Z,953.44
2017-03-01T13:45:02.703Z,953.38
2017-03-01T13:46:11.860Z,953.36
2017-03-01T13:47:21.311Z,953.45
2017-03-01T13:48:30.528Z,953.42
2017-03-01T13:49:39.742Z,953.44
2017-03-01T13:50:48.991Z,953.48
2017-03-01T13:51:58.966Z,953.49
2017-03-01T13:53:08.225Z,953.46
2017-03-01T13:54:17.040Z,953.48
2017-03-01T13:55:26.624Z,953.51
2017-03-01T13:56:35.789Z,953.62
2017-03-01T13:57:44.999Z,953.65
2017-03-01T13:58:54.945Z,953.66
2017-03-01T14:00:04.567Z,953.76
2017-03-01T14:01:14.536Z,953.73
2017-03-01T14:02:24.352Z,953.77
2017-03-01T14:03:33.546Z,953.73
2017-03-01T14:04:42.383Z,953.71
2017-03-01T14:05:51.604Z,953.69
2017-03-01T14:07:01.217Z,953.76
2017-03-01T14:08:10.815Z,953.73
2017-03-01T14:09:20.612Z,953.71
2017-03-01T14:10:30.168Z,953.69
2017-03-01T14:11:40.522Z,953.72
2017-03-01T14:12:50.105Z,953.71
2017-03-01T14:13:59.357Z,953.73
2017-03-01T14:15:08.973Z,953.72
2017-03-01T14:16:18.570Z,953.7
2017-03-01T14:17:28.560Z,953.67
2017-03-01T14:18:37.756Z,953.69
2017-03-01T14:19:47.753Z,953.69
2017-03-01T14:20:56.971Z,953.73
2017-03-01T14:22:06.978Z,953.68
2017-03-01T14:23:16.562Z,953.67
2017-03-01T14:24:26.093Z,953.65
2017-03-01T14:25:34.949Z,953.63
2017-03-01T14:26:44.156Z,953.54
2017-03-01T14:27:53.971Z,953.56
2017-03-01T14:29:04.362Z,953.55
2017-03-01T14:30:13.573Z,953.53
2017-03-01T14:31:22.802Z,953.57
2017-03-01T14:32:31.624Z,953.66
2017-03-01T14:33:42.001Z,953.69
2017-03-01T14:34:51.176Z,953.65
2017-03-01T14:36:01.525Z,953.64